Tuesday, January 16, 2018, 6:53 AM EST
Back to Local

KELM, Elmira County Airport

Location: Horseheads, NY, United States Lat: 42.167
Local Time: 6:53 AM EST (11:53 GMT) Lon: -76.9
Time Zone: US/Eastern Elev: 954 ft

Show me the last for .
Show Decoded

2018-01-16 05:53 METAR KELM 161053Z 00000KT 4SM -SN BR BKN050 BKN060 OVC120 M06/M07 A3034 RMK AO2
                 SLP289 P0000 T10561067 $ =
2018-01-16 04:53 METAR KELM 160953Z AUTO 00000KT 5SM -SN BR SCT041 BKN060 OVC070 M06/M07 A3033
                 RMK AO2 SNE04B44 SLP285 P0000 T10561067 $ =
2018-01-16 03:53 METAR KELM 160853Z AUTO 04003KT 5SM -SN BR FEW070 OVC085 M06/M07 A3033 RMK AO2
                 SLP285 P0000 60000 T10561067 58002 $ =
2018-01-16 03:35 METAR KELM 160835Z AUTO 00000KT 4SM -SN BR SCT041 BKN070 OVC085 M06/M07 A3034
                 RMK AO2 P0000 T10561067 $ =
2018-01-16 03:11 METAR KELM 160811Z AUTO 10004KT 2SM -SN BR OVC032 M05/M07 A3034 RMK AO2 P0000
                 T10501067 $ =
2018-01-16 02:50 METAR KELM 160750Z AUTO 00000KT 1 3/4SM -SN BR OVC028 M06/M07 A3034 RMK AO2
                 SNB0658 SLP291 P0000 T10561067 $ =
2018-01-16 02:49 METAR KELM 160749Z AUTO 00000KT 1 3/4SM -SN BR OVC028 M06/M07 A3035 RMK AO2
                 SNB0658 P0000 $ =
2018-01-16 02:36 METAR KELM 160736Z AUTO 00000KT 2SM -SN BR OVC042 M05/M07 A3034 RMK AO2 SNB0658
                 P0000 T10501067 $ =
2018-01-16 01:53 METAR KELM 160653Z AUTO 12003KT 10SM SCT070 OVC095 M06/M07 A3034 RMK AO2 SLP290
                 T10561072 $ =
2018-01-16 01:18 METAR KELM 160618Z AUTO 00000KT 10SM SCT022 BKN050 OVC070 M05/M07 A3033 RMK AO2
                 T10501067 $ =
2018-01-16 01:05 METAR KELM 160605Z AUTO 00000KT 10SM BKN022 BKN055 OVC080 M05/M07 A3034 RMK AO2
                 T10501072 $ =
2018-01-16 00:53 METAR KELM 160553Z AUTO 02003KT 10SM FEW022 SCT070 OVC085 M06/M07 A3033 RMK AO2
                 SNE27 SLP288 P0000 60000 T10561072 11050 21061 58014 $ =
2018-01-16 00:04 METAR KELM 160504Z AUTO 00000KT 4SM -SN BR BKN055 OVC065 M06/M07 A3035 RMK AO2
                 P0000 T10561067 $ =
2018-01-15 23:53 METAR KELM 160453Z AUTO 00000KT 2 1/2SM -SN BR OVC042 M06/M07 A3036 RMK AO2
                 SLP297 P0000 T10561067 410561228 $ =
2018-01-15 23:40 METAR KELM 160440Z 00000KT 2SM -SN BR OVC034 M06/M07 A3036 RMK AO2 P0000
                 T10561067 $ =
2018-01-15 23:33 METAR KELM 160433Z 00000KT 2SM -SN BR OVC028 M06/M07 A3037 RMK AO2 P0000
                 T10561067 $ =
2018-01-15 23:09 METAR KELM 160409Z 00000KT 1 1/2SM -SN BR OVC022 M06/M07 A3038 RMK AO2 P0000
                 T10561067 $ =
2018-01-15 22:53 METAR KELM 160353Z 00000KT 2 1/2SM -SN BR FEW019 OVC028 M06/M07 A3038 RMK AO2
                 SLP306 P0000 T10561072 $ =
2018-01-15 22:46 METAR KELM 160346Z 05003KT 2SM -SN BR OVC026 M06/M07 A3038 RMK AO2 P0000
                 T10561072 $ =
2018-01-15 22:00 METAR KELM 160300Z 00000KT 1 1/2SM -SN BR OVC020 M06/M08 A3038 RMK AO2 P0000
                 T10561078 $ =
2018-01-15 21:53 METAR KELM 160253Z 00000KT 3SM -SN OVC021 M06/M08 A3037 RMK AO2 SLP305 P0000
                 60000 T10561083 56012 $ =
2018-01-15 21:13 METAR KELM 160213Z 20003KT 8SM -SN BKN023 OVC050 M06/M08 A3038 RMK AO2 P0000
                 T10561083 $ =
2018-01-15 20:53 METAR KELM 160153Z 00000KT 8SM -SN OVC047 M06/M09 A3038 RMK AO2 SLP310 P0000
                 T10561089 $ =
2018-01-15 20:38 METAR KELM 160138Z 00000KT 3SM -SN OVC033 M06/M09 A3038 RMK AO2 P0000 T10611089
                 $ =
2018-01-15 20:19 METAR KELM 160119Z 00000KT 2SM -SN OVC028 M06/M09 A3039 RMK AO2 P0000 T10611089
                 $ =
2018-01-15 19:53 METAR KELM 160053Z 00000KT 3SM -SN FEW019 OVC030 M06/M09 A3040 RMK AO2 SNB29
                 SLP317 P0000 T10611094 $ =
2018-01-15 18:53 METAR KELM 152353Z VRB05KT 10SM OVC019 M06/M10 A3041 RMK AO2 SLP321 T10611100
                 11061 21083 56006 $ =
2018-01-15 17:53 METAR KELM 152253Z VRB03KT 10SM OVC023 M06/M10 A3042 RMK AO2 SLP323 T10611100 $
                 =
2018-01-15 16:53 METAR KELM 152153Z 10005KT 10SM OVC026 M07/M11 A3041 RMK AO2 SLP318 T10671106 $
                 =
2018-01-15 15:53 METAR KELM 152053Z 14003KT 10SM OVC028 M07/M11 A3043 RMK AO2 SLP326 T10671111
                 58005 $ =
2018-01-15 15:19 METAR KELM 152019Z 08004KT 10SM BKN028 OVC085 M07/M11 A3043 RMK AO2 T10671111 $
                 =
2018-01-15 14:53 METAR KELM 151953Z 12007KT 10SM FEW027 OVC090 M07/M12 A3044 RMK AO2 SLP328
                 T10721117 $ =
2018-01-15 13:53 METAR KELM 151853Z 09004KT 10SM FEW025 BKN031 OVC110 M08/M12 A3044 RMK AO2
                 SLP332 T10781122 $ =
2018-01-15 13:50 METAR KELM 151850Z 00000KT 10SM OVC031 M08/M12 A3045 RMK AO2 $ =
2018-01-15 12:53 METAR KELM 151753Z VRB05KT 10SM FEW021 BKN026 M08/M13 A3047 RMK AO2 SLP342
                 T10831128 11083 21228 58033 $ =
2018-01-15 12:00 METAR KELM 151700Z 06005KT 9SM OVC028 M09/M14 A3052 RMK AO2 T10941139 $ =
2018-01-15 11:53 METAR KELM 151653Z 05005KT 10SM FEW016 M10/M14 A3053 RMK AO2 SLP360 T11001144 $
                 =
2018-01-15 10:53 METAR KELM 151553Z 03005KT 10SM FEW020 M12/M17 A3056 RMK AO2 SLP371 T11171167 $
                 =
2018-01-15 09:53 METAR KELM 151453Z 00000KT 10SM CLR M16/M18 A3057 RMK AO2 SLP378 T11561178 58003
                 $ =
2018-01-15 08:53 METAR KELM 151353Z 00000KT 10SM CLR M21/M21 A3058 RMK AO2 SLP383 T12061206 =
2018-01-15 07:53 METAR KELM 151253Z 00000KT 9SM CLR M23/M24 A3059 RMK AO2 SLP388 T12281244 =

Support USWX by starting your Amazon purchase here.